UAL2467 KORD-KROA
Flight info
| Callsign | UAL2467 |
|---|---|
| Flight time | 1h 18m |
| Altitude | 37000 |
| Route | EARND ELANR EMMLY ETAME EMEGE FLM |
| Aircraft | A320/M-SDE3FGHIRWY/LB1 |
Departure
| Time | 2026-04-22 23:55 |
|---|---|
| Airport | Chicago O'Hare International Airport (KORD) |
Arrival
| Time | 2026-04-23 01:14 |
|---|---|
| Airport | Roanoke–Blacksburg Regional Airport (KROA) |
| Time | Latitude | Longitude | Altitude | Speed | Heading |
|---|---|---|---|---|---|
| 2026-04-22 23:28 | 41.97516 | -87.90870 | 671 ft | 0 kts | 182° |
| 2026-04-22 23:41 | 41.97519 | -87.90872 | 671 ft | 2 kts | 167° |
| 2026-04-22 23:42 | 41.97521 | -87.90864 | 670 ft | 3 kts | 106° |
| 2026-04-22 23:42 | 41.97528 | -87.90882 | 670 ft | 1 kts | 144° |
| 2026-04-22 23:42 | 41.97541 | -87.90893 | 667 ft | 3 kts | 170° |
| 2026-04-22 23:42 | 41.97557 | -87.90890 | 668 ft | 3 kts | 219° |
| 2026-04-22 23:43 | 41.97570 | -87.90871 | 671 ft | 3 kts | 241° |
| 2026-04-22 23:43 | 41.97576 | -87.90853 | 668 ft | 1 kts | 250° |
| 2026-04-22 23:43 | 41.97578 | -87.90848 | 669 ft | 1 kts | 250° |
| 2026-04-22 23:47 | 41.97577 | -87.90853 | 668 ft | 2 kts | 250° |
| 2026-04-22 23:47 | 41.97567 | -87.90889 | 671 ft | 6 kts | 250° |
| 2026-04-22 23:47 | 41.97547 | -87.90963 | 671 ft | 10 kts | 250° |
| 2026-04-22 23:48 | 41.97511 | -87.91059 | 670 ft | 9 kts | 216° |
| 2026-04-22 23:48 | 41.97451 | -87.91019 | 671 ft | 12 kts | 137° |
| 2026-04-22 23:48 | 41.97379 | -87.90927 | 671 ft | 17 kts | 137° |
| 2026-04-22 23:48 | 41.97282 | -87.90811 | 670 ft | 21 kts | 135° |
| 2026-04-22 23:49 | 41.97213 | -87.90624 | 669 ft | 20 kts | 97° |
| 2026-04-22 23:49 | 41.97210 | -87.90453 | 671 ft | 18 kts | 92° |
| 2026-04-22 23:49 | 41.97206 | -87.90299 | 671 ft | 18 kts | 91° |
| 2026-04-22 23:49 | 41.97205 | -87.90160 | 671 ft | 8 kts | 88° |
| 2026-04-22 23:50 | 41.97203 | -87.90144 | 669 ft | 3 kts | 103° |
| 2026-04-22 23:50 | 41.97178 | -87.90136 | 671 ft | 4 kts | 195° |
| 2026-04-22 23:50 | 41.97143 | -87.90192 | 670 ft | 14 kts | 269° |
| 2026-04-22 23:50 | 41.97138 | -87.90351 | 671 ft | 19 kts | 269° |
| 2026-04-22 23:51 | 41.97143 | -87.90482 | 670 ft | 11 kts | 273° |
| 2026-04-22 23:51 | 41.97149 | -87.90609 | 670 ft | 16 kts | 273° |
| 2026-04-22 23:51 | 41.97182 | -87.90765 | 671 ft | 19 kts | 309° |
| 2026-04-22 23:51 | 41.97266 | -87.90921 | 671 ft | 19 kts | 310° |
| 2026-04-22 23:52 | 41.97273 | -87.91072 | 671 ft | 19 kts | 264° |
| 2026-04-22 23:52 | 41.97274 | -87.91262 | 671 ft | 22 kts | 268° |
| 2026-04-22 23:52 | 41.97254 | -87.91487 | 671 ft | 26 kts | 262° |
| 2026-04-22 23:52 | 41.97250 | -87.91730 | 671 ft | 28 kts | 270° |
| 2026-04-22 23:53 | 41.97248 | -87.92002 | 671 ft | 30 kts | 270° |
| 2026-04-22 23:53 | 41.97240 | -87.92071 | 671 ft | 5 kts | 233° |
| 2026-04-22 23:53 | 41.97206 | -87.92085 | 671 ft | 5 kts | 183° |
| 2026-04-22 23:53 | 41.97157 | -87.92087 | 671 ft | 9 kts | 180° |
| 2026-04-22 23:54 | 41.97079 | -87.92085 | 671 ft | 13 kts | 178° |
| 2026-04-22 23:54 | 41.96976 | -87.92083 | 673 ft | 16 kts | 179° |
| 2026-04-22 23:54 | 41.96899 | -87.92041 | 673 ft | 7 kts | 111° |
| 2026-04-22 23:54 | 41.96900 | -87.91926 | 674 ft | 34 kts | 88° |
| 2026-04-22 23:55 | 41.96904 | -87.91208 | 673 ft | 115 kts | 89° |
| 2026-04-22 23:55 | 41.96905 | -87.89862 | 722 ft | 167 kts | 89° |
| 2026-04-22 23:55 | 41.96898 | -87.88406 | 1721 ft | 145 kts | 92° |
| 2026-04-22 23:55 | 41.96884 | -87.87066 | 2502 ft | 148 kts | 89° |
| 2026-04-22 23:56 | 41.96900 | -87.85587 | 2982 ft | 167 kts | 89° |
| 2026-04-22 23:56 | 41.96928 | -87.83956 | 3563 ft | 182 kts | 88° |
| 2026-04-22 23:56 | 41.96963 | -87.82200 | 4205 ft | 195 kts | 88° |
| 2026-04-22 23:56 | 41.96998 | -87.80237 | 4667 ft | 224 kts | 89° |
| 2026-04-22 23:57 | 41.97032 | -87.78000 | 4984 ft | 259 kts | 89° |
| 2026-04-22 23:57 | 41.97057 | -87.75501 | 5578 ft | 272 kts | 92° |
| 2026-04-22 23:57 | 41.96630 | -87.73015 | 6691 ft | 277 kts | 116° |
| 2026-04-22 23:57 | 41.95452 | -87.70962 | 7784 ft | 282 kts | 141° |
| 2026-04-22 23:58 | 41.93702 | -87.69788 | 8853 ft | 285 kts | 167° |
| 2026-04-22 23:58 | 41.91738 | -87.69277 | 9925 ft | 288 kts | 170° |
| 2026-04-22 23:58 | 41.89748 | -87.68796 | 10933 ft | 292 kts | 170° |
| 2026-04-22 23:58 | 41.87729 | -87.68310 | 11923 ft | 297 kts | 170° |
| 2026-04-22 23:59 | 41.85683 | -87.67816 | 12864 ft | 301 kts | 170° |
| 2026-04-22 23:59 | 41.83602 | -87.67313 | 13775 ft | 306 kts | 170° |
| 2026-04-22 23:59 | 41.81494 | -87.66799 | 14659 ft | 310 kts | 170° |
| 2026-04-22 23:59 | 41.79383 | -87.66281 | 15512 ft | 314 kts | 170° |
| 2026-04-23 00:00 | 41.74910 | -87.65176 | 16482 ft | 348 kts | 170° |
| 2026-04-23 00:00 | 41.73269 | -87.64770 | 16679 ft | 361 kts | 170° |
| 2026-04-23 00:00 | 41.69941 | -87.63945 | 17491 ft | 372 kts | 169° |
| 2026-04-23 00:01 | 41.67377 | -87.63309 | 18219 ft | 377 kts | 169° |
| 2026-04-23 00:01 | 41.64783 | -87.62668 | 18959 ft | 381 kts | 170° |
| 2026-04-23 00:01 | 41.62156 | -87.62024 | 19717 ft | 385 kts | 170° |
| 2026-04-23 00:01 | 41.59507 | -87.61377 | 20463 ft | 390 kts | 170° |
| 2026-04-23 00:02 | 41.56825 | -87.60721 | 21162 ft | 394 kts | 170° |
| 2026-04-23 00:02 | 41.54111 | -87.60056 | 21839 ft | 398 kts | 170° |
| 2026-04-23 00:02 | 41.51374 | -87.59386 | 22483 ft | 402 kts | 170° |
| 2026-04-23 00:02 | 41.49542 | -87.58938 | 22804 ft | 404 kts | 170° |
| 2026-04-23 00:03 | 41.46770 | -87.58258 | 22970 ft | 405 kts | 170° |
| 2026-04-23 00:03 | 41.44000 | -87.57578 | 23009 ft | 405 kts | 170° |
| 2026-04-23 00:03 | 41.41220 | -87.56922 | 23010 ft | 405 kts | 171° |
| 2026-04-23 00:03 | 41.37528 | -87.56207 | 23009 ft | 405 kts | 173° |
| 2026-04-23 00:04 | 41.34731 | -87.55744 | 23008 ft | 405 kts | 173° |
| 2026-04-23 00:04 | 41.32838 | -87.55446 | 23009 ft | 405 kts | 173° |
| 2026-04-23 00:04 | 41.30041 | -87.55006 | 23009 ft | 405 kts | 173° |
| 2026-04-23 00:04 | 41.27241 | -87.54556 | 23010 ft | 405 kts | 173° |
| 2026-04-23 00:05 | 41.24442 | -87.54091 | 23009 ft | 405 kts | 173° |
| 2026-04-23 00:05 | 41.21682 | -87.53616 | 23009 ft | 405 kts | 173° |
| 2026-04-23 00:05 | 41.18890 | -87.53095 | 23008 ft | 405 kts | 171° |
| 2026-04-23 00:05 | 41.16098 | -87.52429 | 23217 ft | 409 kts | 169° |
| 2026-04-23 00:06 | 41.13307 | -87.51656 | 23906 ft | 411 kts | 168° |
| 2026-04-23 00:06 | 41.10498 | -87.50840 | 24521 ft | 415 kts | 168° |
| 2026-04-23 00:06 | 41.07671 | -87.50021 | 25087 ft | 418 kts | 168° |
| 2026-04-23 00:06 | 41.04807 | -87.49211 | 25624 ft | 422 kts | 168° |
| 2026-04-23 00:07 | 41.01919 | -87.48420 | 26144 ft | 425 kts | 168° |
| 2026-04-23 00:07 | 40.99011 | -87.47640 | 26645 ft | 428 kts | 169° |
| 2026-04-23 00:07 | 40.96074 | -87.46861 | 27130 ft | 432 kts | 169° |
| 2026-04-23 00:07 | 40.93118 | -87.46083 | 27607 ft | 435 kts | 169° |
| 2026-04-23 00:08 | 40.90141 | -87.45296 | 28075 ft | 438 kts | 169° |
| 2026-04-23 00:08 | 40.87144 | -87.44496 | 28531 ft | 441 kts | 169° |
| 2026-04-23 00:08 | 40.84122 | -87.43685 | 28987 ft | 444 kts | 168° |
| 2026-04-23 00:08 | 40.81085 | -87.42869 | 29414 ft | 447 kts | 169° |
| 2026-04-23 00:09 | 40.78024 | -87.42052 | 29836 ft | 450 kts | 169° |
| 2026-04-23 00:09 | 40.74945 | -87.41234 | 30252 ft | 453 kts | 169° |
| 2026-04-23 00:09 | 40.71838 | -87.40412 | 30654 ft | 456 kts | 169° |
| 2026-04-23 00:09 | 40.68713 | -87.39592 | 31037 ft | 459 kts | 169° |
| 2026-04-23 00:10 | 40.65573 | -87.38768 | 31404 ft | 462 kts | 169° |
| 2026-04-23 00:10 | 40.62421 | -87.37939 | 31818 ft | 462 kts | 169° |
| 2026-04-23 00:10 | 40.59273 | -87.37106 | 32319 ft | 461 kts | 169° |
| 2026-04-23 00:10 | 40.56137 | -87.36270 | 32815 ft | 460 kts | 169° |
| 2026-04-23 00:11 | 40.53006 | -87.35440 | 33307 ft | 459 kts | 169° |
| 2026-04-23 00:11 | 40.49918 | -87.34625 | 33796 ft | 458 kts | 169° |
| 2026-04-23 00:11 | 40.46831 | -87.33639 | 34283 ft | 457 kts | 162° |
| 2026-04-23 00:11 | 40.43897 | -87.32056 | 34773 ft | 456 kts | 153° |
| 2026-04-23 00:12 | 40.41154 | -87.29876 | 35269 ft | 455 kts | 145° |
| 2026-04-23 00:12 | 40.38587 | -87.27553 | 35720 ft | 454 kts | 146° |
| 2026-04-23 00:12 | 40.35981 | -87.25201 | 36172 ft | 453 kts | 146° |
| 2026-04-23 00:12 | 40.33381 | -87.22864 | 36601 ft | 453 kts | 146° |
| 2026-04-23 00:13 | 40.30782 | -87.20533 | 36919 ft | 453 kts | 146° |
| 2026-04-23 00:13 | 40.25580 | -87.15872 | 37010 ft | 452 kts | 146° |
| 2026-04-23 00:14 | 40.20384 | -87.11231 | 37009 ft | 452 kts | 146° |
| 2026-04-23 00:14 | 40.15190 | -87.06598 | 37009 ft | 452 kts | 146° |
| 2026-04-23 00:15 | 40.09988 | -87.01972 | 37009 ft | 452 kts | 146° |
| 2026-04-23 00:15 | 40.04785 | -86.97352 | 37011 ft | 452 kts | 146° |
| 2026-04-23 00:16 | 39.99579 | -86.92729 | 37016 ft | 453 kts | 146° |
| 2026-04-23 00:16 | 39.94374 | -86.88106 | 37019 ft | 453 kts | 146° |
| 2026-04-23 00:17 | 39.89154 | -86.83491 | 37023 ft | 453 kts | 146° |
| 2026-04-23 00:17 | 39.83928 | -86.78887 | 37028 ft | 453 kts | 146° |
| 2026-04-23 00:18 | 39.78742 | -86.74320 | 37024 ft | 453 kts | 146° |
| 2026-04-23 00:18 | 39.73571 | -86.69619 | 37027 ft | 453 kts | 140° |
| 2026-04-23 00:19 | 39.69456 | -86.63463 | 37024 ft | 453 kts | 121° |
| 2026-04-23 00:19 | 39.66363 | -86.56329 | 37024 ft | 453 kts | 119° |
| 2026-04-23 00:20 | 39.63260 | -86.49200 | 37023 ft | 454 kts | 120° |
| 2026-04-23 00:20 | 39.60143 | -86.42082 | 37023 ft | 454 kts | 120° |
| 2026-04-23 00:21 | 39.57032 | -86.34971 | 37024 ft | 454 kts | 120° |
| 2026-04-23 00:21 | 39.53919 | -86.27850 | 37026 ft | 454 kts | 120° |
| 2026-04-23 00:22 | 39.50802 | -86.20742 | 37029 ft | 454 kts | 120° |
| 2026-04-23 00:22 | 39.47681 | -86.13636 | 37026 ft | 454 kts | 120° |
| 2026-04-23 00:23 | 39.44558 | -86.06535 | 37027 ft | 454 kts | 120° |
| 2026-04-23 00:23 | 39.41423 | -85.99446 | 37027 ft | 454 kts | 120° |
| 2026-04-23 00:24 | 39.38299 | -85.92405 | 37027 ft | 454 kts | 120° |
| 2026-04-23 00:24 | 39.35140 | -85.85279 | 37026 ft | 454 kts | 120° |
| 2026-04-23 00:25 | 39.32025 | -85.78254 | 37026 ft | 454 kts | 120° |
| 2026-04-23 00:25 | 39.28872 | -85.71186 | 37025 ft | 454 kts | 120° |
| 2026-04-23 00:26 | 39.25717 | -85.64128 | 37025 ft | 454 kts | 120° |
| 2026-04-23 00:26 | 39.22566 | -85.57077 | 37024 ft | 454 kts | 120° |
| 2026-04-23 00:27 | 39.19398 | -85.50031 | 37024 ft | 454 kts | 120° |
| 2026-04-23 00:27 | 39.16231 | -85.42998 | 37025 ft | 454 kts | 120° |
| 2026-04-23 00:28 | 39.13072 | -85.35970 | 37021 ft | 453 kts | 120° |
| 2026-04-23 00:28 | 39.09904 | -85.28948 | 37019 ft | 453 kts | 120° |
| 2026-04-23 00:29 | 39.06726 | -85.21936 | 37019 ft | 453 kts | 120° |
| 2026-04-23 00:29 | 39.03546 | -85.14925 | 37019 ft | 454 kts | 120° |
| 2026-04-23 00:30 | 39.00376 | -85.07965 | 37021 ft | 454 kts | 120° |
| 2026-04-23 00:30 | 38.97184 | -85.00966 | 37023 ft | 454 kts | 120° |
| 2026-04-23 00:31 | 38.93997 | -84.93978 | 37023 ft | 454 kts | 120° |
| 2026-04-23 00:31 | 38.90799 | -84.86987 | 37023 ft | 453 kts | 121° |
| 2026-04-23 00:32 | 38.87600 | -84.80016 | 37023 ft | 453 kts | 121° |
| 2026-04-23 00:32 | 38.84396 | -84.73043 | 37024 ft | 453 kts | 121° |
| 2026-04-23 00:33 | 38.81188 | -84.66083 | 37024 ft | 454 kts | 121° |
| 2026-04-23 00:33 | 38.77968 | -84.59128 | 37027 ft | 454 kts | 121° |
| 2026-04-23 00:34 | 38.74742 | -84.52158 | 37023 ft | 454 kts | 121° |
| 2026-04-23 00:34 | 38.71521 | -84.45208 | 37024 ft | 454 kts | 121° |
| 2026-04-23 00:35 | 38.68295 | -84.38267 | 37023 ft | 454 kts | 121° |
| 2026-04-23 00:35 | 38.65062 | -84.31339 | 37023 ft | 453 kts | 121° |
| 2026-04-23 00:36 | 38.62190 | -84.24164 | 37023 ft | 453 kts | 113° |
| 2026-04-23 00:36 | 38.59898 | -84.16656 | 37021 ft | 453 kts | 110° |
| 2026-04-23 00:37 | 38.57606 | -84.09148 | 37021 ft | 453 kts | 112° |
| 2026-04-23 00:37 | 38.55156 | -84.01771 | 37022 ft | 454 kts | 114° |
| 2026-04-23 00:38 | 38.52617 | -83.94393 | 37022 ft | 454 kts | 114° |
| 2026-04-23 00:38 | 38.50090 | -83.87012 | 37021 ft | 454 kts | 113° |
| 2026-04-23 00:39 | 38.47587 | -83.79609 | 37021 ft | 454 kts | 113° |
| 2026-04-23 00:39 | 38.45086 | -83.72216 | 37021 ft | 454 kts | 113° |
| 2026-04-23 00:40 | 38.42574 | -83.64828 | 37024 ft | 454 kts | 114° |
| 2026-04-23 00:40 | 38.40052 | -83.57432 | 37030 ft | 454 kts | 114° |
| 2026-04-23 00:41 | 38.37526 | -83.50040 | 37025 ft | 454 kts | 114° |
| 2026-04-23 00:41 | 38.35010 | -83.42715 | 37027 ft | 454 kts | 114° |
| 2026-04-23 00:42 | 38.32468 | -83.35343 | 37023 ft | 454 kts | 114° |
| 2026-04-23 00:42 | 38.29924 | -83.27985 | 36916 ft | 454 kts | 114° |
| 2026-04-23 00:42 | 38.28654 | -83.24307 | 36669 ft | 453 kts | 114° |
| 2026-04-23 00:43 | 38.27386 | -83.20627 | 36419 ft | 453 kts | 114° |
| 2026-04-23 00:43 | 38.26119 | -83.16956 | 36169 ft | 453 kts | 114° |
| 2026-04-23 00:43 | 38.24851 | -83.13287 | 35920 ft | 453 kts | 114° |
| 2026-04-23 00:43 | 38.23581 | -83.09620 | 35673 ft | 453 kts | 114° |
| 2026-04-23 00:44 | 38.22305 | -83.05953 | 35420 ft | 454 kts | 114° |
| 2026-04-23 00:44 | 38.21024 | -83.02285 | 35170 ft | 454 kts | 114° |
| 2026-04-23 00:44 | 38.19745 | -82.98617 | 34921 ft | 454 kts | 114° |
| 2026-04-23 00:44 | 38.18462 | -82.94945 | 34674 ft | 455 kts | 114° |
| 2026-04-23 00:45 | 38.17174 | -82.91269 | 34421 ft | 455 kts | 114° |
| 2026-04-23 00:45 | 38.15886 | -82.87592 | 34172 ft | 456 kts | 114° |
| 2026-04-23 00:45 | 38.14611 | -82.83956 | 33924 ft | 456 kts | 114° |
| 2026-04-23 00:45 | 38.13320 | -82.80274 | 33673 ft | 457 kts | 114° |
| 2026-04-23 00:46 | 38.12026 | -82.76585 | 33425 ft | 457 kts | 114° |
| 2026-04-23 00:46 | 38.10733 | -82.72897 | 33177 ft | 458 kts | 114° |
| 2026-04-23 00:46 | 38.09436 | -82.69204 | 32926 ft | 458 kts | 114° |
| 2026-04-23 00:46 | 38.08134 | -82.65509 | 32675 ft | 459 kts | 114° |
| 2026-04-23 00:47 | 38.06827 | -82.61819 | 32427 ft | 459 kts | 114° |
| 2026-04-23 00:47 | 38.05516 | -82.58119 | 32177 ft | 460 kts | 114° |
| 2026-04-23 00:47 | 38.04205 | -82.54413 | 31923 ft | 460 kts | 114° |
| 2026-04-23 00:47 | 38.02893 | -82.50704 | 31671 ft | 461 kts | 114° |
| 2026-04-23 00:48 | 38.01577 | -82.46989 | 31429 ft | 462 kts | 114° |
| 2026-04-23 00:48 | 38.00258 | -82.43275 | 31174 ft | 462 kts | 114° |
| 2026-04-23 00:48 | 37.98942 | -82.39561 | 30922 ft | 462 kts | 114° |
| 2026-04-23 00:48 | 37.97625 | -82.35852 | 30673 ft | 460 kts | 114° |
| 2026-04-23 00:49 | 37.96311 | -82.32154 | 30421 ft | 459 kts | 114° |
| 2026-04-23 00:49 | 37.94999 | -82.28477 | 30172 ft | 457 kts | 114° |
| 2026-04-23 00:49 | 37.93688 | -82.24816 | 29922 ft | 456 kts | 114° |
| 2026-04-23 00:49 | 37.92383 | -82.21172 | 29672 ft | 454 kts | 114° |
| 2026-04-23 00:50 | 37.91081 | -82.17539 | 29424 ft | 452 kts | 114° |
| 2026-04-23 00:50 | 37.90222 | -82.15142 | 29256 ft | 451 kts | 114° |
| 2026-04-23 00:50 | 37.88913 | -82.11548 | 29004 ft | 449 kts | 117° |
| 2026-04-23 00:50 | 37.87137 | -82.08322 | 28706 ft | 446 kts | 134° |
| 2026-04-23 00:51 | 37.84797 | -82.05769 | 28323 ft | 443 kts | 142° |
| 2026-04-23 00:51 | 37.82375 | -82.03378 | 27948 ft | 441 kts | 142° |
| 2026-04-23 00:51 | 37.79179 | -82.00237 | 27450 ft | 438 kts | 142° |
| 2026-04-23 00:51 | 37.77555 | -81.98642 | 27196 ft | 436 kts | 142° |
| 2026-04-23 00:52 | 37.74394 | -81.95539 | 26668 ft | 433 kts | 142° |
| 2026-04-23 00:52 | 37.72792 | -81.93965 | 26391 ft | 431 kts | 142° |
| 2026-04-23 00:52 | 37.70458 | -81.91674 | 26003 ft | 429 kts | 142° |
| 2026-04-23 00:52 | 37.68111 | -81.89369 | 25602 ft | 426 kts | 142° |
| 2026-04-23 00:53 | 37.65778 | -81.87078 | 25202 ft | 423 kts | 142° |
| 2026-04-23 00:53 | 37.63462 | -81.84802 | 24807 ft | 421 kts | 142° |
| 2026-04-23 00:53 | 37.61159 | -81.82540 | 24401 ft | 418 kts | 142° |
| 2026-04-23 00:53 | 37.58895 | -81.80258 | 23999 ft | 416 kts | 137° |
| 2026-04-23 00:54 | 37.57102 | -81.77436 | 23587 ft | 413 kts | 119° |
| 2026-04-23 00:54 | 37.56054 | -81.74081 | 23198 ft | 411 kts | 107° |
| 2026-04-23 00:54 | 37.55246 | -81.70634 | 22797 ft | 409 kts | 106° |
| 2026-04-23 00:54 | 37.54452 | -81.67187 | 22206 ft | 407 kts | 106° |
| 2026-04-23 00:55 | 37.53668 | -81.63773 | 21591 ft | 404 kts | 106° |
| 2026-04-23 00:55 | 37.52890 | -81.60377 | 20965 ft | 402 kts | 106° |
| 2026-04-23 00:55 | 37.52117 | -81.57000 | 20339 ft | 400 kts | 106° |
| 2026-04-23 00:55 | 37.51350 | -81.53642 | 19774 ft | 396 kts | 106° |
| 2026-04-23 00:56 | 37.50595 | -81.50336 | 19274 ft | 390 kts | 106° |
| 2026-04-23 00:56 | 37.49851 | -81.47068 | 18773 ft | 386 kts | 106° |
| 2026-04-23 00:56 | 37.49116 | -81.43838 | 18271 ft | 382 kts | 106° |
| 2026-04-23 00:56 | 37.48388 | -81.40634 | 17775 ft | 379 kts | 106° |
| 2026-04-23 00:57 | 37.47667 | -81.37456 | 17270 ft | 376 kts | 106° |
| 2026-04-23 00:57 | 37.46960 | -81.34340 | 16776 ft | 374 kts | 106° |
| 2026-04-23 00:57 | 37.46250 | -81.31202 | 16276 ft | 371 kts | 106° |
| 2026-04-23 00:57 | 37.45545 | -81.28086 | 15775 ft | 369 kts | 106° |
| 2026-04-23 00:58 | 37.44837 | -81.24951 | 15267 ft | 366 kts | 106° |
| 2026-04-23 00:58 | 37.44154 | -81.21925 | 14809 ft | 363 kts | 106° |
| 2026-04-23 00:58 | 37.43467 | -81.18874 | 14561 ft | 362 kts | 106° |
| 2026-04-23 00:58 | 37.42781 | -81.15828 | 14308 ft | 361 kts | 106° |
| 2026-04-23 00:59 | 37.42099 | -81.12794 | 14056 ft | 360 kts | 106° |
| 2026-04-23 00:59 | 37.41420 | -81.09773 | 13797 ft | 358 kts | 106° |
| 2026-04-23 00:59 | 37.40745 | -81.06764 | 13554 ft | 357 kts | 106° |
| 2026-04-23 00:59 | 37.40073 | -81.03764 | 13302 ft | 356 kts | 105° |
| 2026-04-23 01:00 | 37.39405 | -81.00779 | 13055 ft | 354 kts | 105° |
| 2026-04-23 01:00 | 37.38738 | -80.97794 | 12805 ft | 353 kts | 105° |
| 2026-04-23 01:00 | 37.38076 | -80.94829 | 12555 ft | 352 kts | 105° |
| 2026-04-23 01:00 | 37.37416 | -80.91870 | 12301 ft | 351 kts | 105° |
| 2026-04-23 01:01 | 37.36760 | -80.88927 | 12053 ft | 349 kts | 105° |
| 2026-04-23 01:01 | 37.36107 | -80.85994 | 11803 ft | 347 kts | 105° |
| 2026-04-23 01:01 | 37.35459 | -80.83078 | 11552 ft | 346 kts | 105° |
| 2026-04-23 01:01 | 37.34813 | -80.80171 | 11303 ft | 345 kts | 105° |
| 2026-04-23 01:02 | 37.34179 | -80.77312 | 11063 ft | 343 kts | 105° |
| 2026-04-23 01:02 | 37.33540 | -80.74431 | 10878 ft | 342 kts | 105° |
| 2026-04-23 01:02 | 37.32873 | -80.71565 | 10877 ft | 342 kts | 107° |
| 2026-04-23 01:02 | 37.32153 | -80.68715 | 10882 ft | 342 kts | 108° |
| 2026-04-23 01:03 | 37.31406 | -80.65871 | 10882 ft | 341 kts | 108° |
| 2026-04-23 01:03 | 37.30673 | -80.63124 | 10812 ft | 323 kts | 109° |
| 2026-04-23 01:03 | 37.29972 | -80.60509 | 10683 ft | 309 kts | 109° |
| 2026-04-23 01:03 | 37.29299 | -80.57993 | 10435 ft | 301 kts | 108° |
| 2026-04-23 01:04 | 37.28638 | -80.55509 | 10063 ft | 298 kts | 108° |
| 2026-04-23 01:04 | 37.27989 | -80.53056 | 9863 ft | 293 kts | 108° |
| 2026-04-23 01:04 | 37.26700 | -80.48171 | 9043 ft | 293 kts | 108° |
| 2026-04-23 01:05 | 37.26064 | -80.45769 | 8539 ft | 295 kts | 108° |
| 2026-04-23 01:05 | 37.25416 | -80.43321 | 8091 ft | 295 kts | 108° |
| 2026-04-23 01:05 | 37.24771 | -80.40882 | 7657 ft | 294 kts | 108° |
| 2026-04-23 01:05 | 37.24126 | -80.38448 | 7228 ft | 292 kts | 108° |
| 2026-04-23 01:06 | 37.23501 | -80.36088 | 6807 ft | 277 kts | 108° |
| 2026-04-23 01:06 | 37.22906 | -80.33845 | 6413 ft | 265 kts | 108° |
| 2026-04-23 01:06 | 37.22333 | -80.31699 | 6032 ft | 254 kts | 109° |
| 2026-04-23 01:06 | 37.21787 | -80.29647 | 5664 ft | 243 kts | 108° |
| 2026-04-23 01:07 | 37.21350 | -80.27648 | 5319 ft | 232 kts | 95° |
| 2026-04-23 01:07 | 37.21496 | -80.25704 | 5154 ft | 220 kts | 72° |
| 2026-04-23 01:07 | 37.22091 | -80.24020 | 5019 ft | 203 kts | 63° |
| 2026-04-23 01:07 | 37.22685 | -80.22489 | 4939 ft | 190 kts | 64° |
| 2026-04-23 01:08 | 37.23255 | -80.21016 | 4821 ft | 186 kts | 64° |
| 2026-04-23 01:08 | 37.23817 | -80.19563 | 4675 ft | 185 kts | 64° |
| 2026-04-23 01:08 | 37.24364 | -80.18148 | 4547 ft | 173 kts | 64° |
| 2026-04-23 01:08 | 37.24877 | -80.16820 | 4325 ft | 166 kts | 64° |
| 2026-04-23 01:09 | 37.25369 | -80.15550 | 4139 ft | 159 kts | 64° |
| 2026-04-23 01:09 | 37.25847 | -80.14312 | 3891 ft | 152 kts | 64° |
| 2026-04-23 01:09 | 37.26284 | -80.13181 | 3640 ft | 139 kts | 64° |
| 2026-04-23 01:09 | 37.26697 | -80.12113 | 3391 ft | 134 kts | 64° |
| 2026-04-23 01:10 | 37.27100 | -80.11071 | 3142 ft | 132 kts | 64° |
| 2026-04-23 01:10 | 37.27498 | -80.10041 | 2944 ft | 131 kts | 64° |
| 2026-04-23 01:10 | 37.27895 | -80.09014 | 2745 ft | 130 kts | 64° |
| 2026-04-23 01:10 | 37.28291 | -80.07991 | 2629 ft | 130 kts | 64° |
| 2026-04-23 01:11 | 37.28682 | -80.06979 | 2524 ft | 130 kts | 64° |
| 2026-04-23 01:11 | 37.29077 | -80.05954 | 2428 ft | 130 kts | 64° |
| 2026-04-23 01:11 | 37.29411 | -80.04897 | 2318 ft | 130 kts | 71° |
| 2026-04-23 01:11 | 37.29728 | -80.03835 | 2117 ft | 130 kts | 65° |
| 2026-04-23 01:12 | 37.30136 | -80.02832 | 1946 ft | 129 kts | 62° |
| 2026-04-23 01:12 | 37.30551 | -80.01835 | 1855 ft | 129 kts | 63° |
| 2026-04-23 01:12 | 37.30940 | -80.00818 | 1696 ft | 129 kts | 64° |
| 2026-04-23 01:12 | 37.31326 | -79.99805 | 1444 ft | 128 kts | 61° |
| 2026-04-23 01:13 | 37.31861 | -79.98932 | 1288 ft | 127 kts | 50° |
| 2026-04-23 01:13 | 37.32431 | -79.98091 | 1183 ft | 121 kts | 50° |
| 2026-04-23 01:13 | 37.32881 | -79.97431 | 1187 ft | 78 kts | 49° |
| 2026-04-23 01:13 | 37.33188 | -79.96979 | 1193 ft | 59 kts | 49° |
| 2026-04-23 01:14 | 37.33351 | -79.96730 | 1193 ft | 21 kts | 64° |
| 2026-04-23 01:14 | 37.33291 | -79.96622 | 1194 ft | 11 kts | 186° |
| 2026-04-23 01:14 | 37.33250 | -79.96678 | 1193 ft | 4 kts | 227° |
| 2026-04-23 01:14 | 37.33250 | -79.96679 | 1193 ft | 0 kts | 227° |
| 2026-04-23 01:15 | 37.33244 | -79.96687 | 1193 ft | 4 kts | 227° |
| 2026-04-23 01:15 | 37.33215 | -79.96726 | 1193 ft | 9 kts | 227° |
| 2026-04-23 01:15 | 37.33162 | -79.96799 | 1193 ft | 14 kts | 229° |
| 2026-04-23 01:15 | 37.33087 | -79.96910 | 1192 ft | 20 kts | 230° |
| 2026-04-23 01:16 | 37.32991 | -79.97056 | 1190 ft | 21 kts | 234° |
| 2026-04-23 01:16 | 37.32904 | -79.97221 | 1189 ft | 25 kts | 230° |
| 2026-04-23 01:16 | 37.32782 | -79.97384 | 1187 ft | 28 kts | 225° |
| 2026-04-23 01:16 | 37.32650 | -79.97582 | 1186 ft | 29 kts | 231° |
| 2026-04-23 01:17 | 37.32572 | -79.97634 | 1185 ft | 13 kts | 160° |
| 2026-04-23 01:17 | 37.32483 | -79.97564 | 1184 ft | 18 kts | 147° |
| 2026-04-23 01:17 | 37.32369 | -79.97477 | 1182 ft | 21 kts | 153° |
| 2026-04-23 01:17 | 37.32233 | -79.97368 | 1180 ft | 21 kts | 148° |
| 2026-04-23 01:18 | 37.32184 | -79.97329 | 1179 ft | 2 kts | 142° |
| 2026-04-23 01:18 | 37.32172 | -79.97304 | 1175 ft | 4 kts | 112° |
| 2026-04-23 01:18 | 37.32159 | -79.97269 | 1178 ft | 4 kts | 122° |
| 2026-04-23 01:18 | 37.32122 | -79.97232 | 1178 ft | 10 kts | 147° |
| 2026-04-23 01:19 | 37.32116 | -79.97179 | 1178 ft | 0 kts | 51° |
| 2026-04-23 01:19 | 37.32117 | -79.97178 | 1178 ft | 0 kts | 51° |
| 2026-04-23 01:19 | 37.32121 | -79.97175 | 1176 ft | 2 kts | 39° |
| 2026-04-23 01:20 | 37.32130 | -79.97173 | 1174 ft | 3 kts | 9° |
| 2026-04-23 01:20 | 37.32164 | -79.97200 | 1178 ft | 13 kts | 320° |
| 2026-04-23 01:20 | 37.32189 | -79.97257 | 1180 ft | 3 kts | 252° |
| 2026-04-23 01:20 | 37.32157 | -79.97270 | 1177 ft | 11 kts | 164° |
| 2026-04-23 01:21 | 37.32140 | -79.97207 | 1178 ft | 4 kts | 56° |
| 2026-04-23 01:21 | 37.32159 | -79.97183 | 1177 ft | 3 kts | 49° |
| 2026-04-23 01:21 | 37.32160 | -79.97182 | 1177 ft | 0 kts | 50° |